sensor_id;sensor_type;location;lat;lon;timestamp;P1;durP1;ratioP1;P2;durP2;ratioP2
52984;SDS011;40499;47.830;19.026;2022-08-25T00:00:47;14.90;;;6.97;;
52984;SDS011;40499;47.830;19.026;2022-08-25T00:03:14;13.95;;;7.05;;
52984;SDS011;40499;47.830;19.026;2022-08-25T00:05:40;17.05;;;6.78;;
52984;SDS011;40499;47.830;19.026;2022-08-25T00:08:06;14.02;;;6.35;;
52984;SDS011;40499;47.830;19.026;2022-08-25T00:10:32;14.63;;;6.47;;
52984;SDS011;40499;47.830;19.026;2022-08-25T00:13:01;11.00;;;6.45;;
52984;SDS011;40499;47.830;19.026;2022-08-25T00:15:28;13.85;;;7.30;;
52984;SDS011;40499;47.830;19.026;2022-08-25T00:17:55;12.68;;;7.20;;
52984;SDS011;40499;47.830;19.026;2022-08-25T00:20:21;15.38;;;8.05;;
52984;SDS011;40499;47.830;19.026;2022-08-25T00:22:47;17.00;;;7.43;;
52984;SDS011;40499;47.830;19.026;2022-08-25T00:25:13;17.23;;;6.88;;
52984;SDS011;40499;47.830;19.026;2022-08-25T00:27:39;17.42;;;6.80;;
52984;SDS011;40499;47.830;19.026;2022-08-25T00:30:05;18.98;;;8.20;;
52984;SDS011;40499;47.830;19.026;2022-08-25T00:32:31;13.85;;;6.55;;
52984;SDS011;40499;47.830;19.026;2022-08-25T00:34:56;17.98;;;7.30;;
52984;SDS011;40499;47.830;19.026;2022-08-25T00:37:22;18.15;;;7.72;;
52984;SDS011;40499;47.830;19.026;2022-08-25T00:39:48;18.70;;;7.20;;
52984;SDS011;40499;47.830;19.026;2022-08-25T00:42:13;19.70;;;7.45;;
52984;SDS011;40499;47.830;19.026;2022-08-25T00:44:39;14.40;;;7.93;;
52984;SDS011;40499;47.830;19.026;2022-08-25T00:47:05;16.77;;;7.30;;
52984;SDS011;40499;47.830;19.026;2022-08-25T00:49:33;16.58;;;7.53;;
52984;SDS011;40499;47.830;19.026;2022-08-25T00:54:48;14.88;;;6.95;;
52984;SDS011;40499;47.830;19.026;2022-08-25T00:57:20;16.25;;;7.43;;
52984;SDS011;40499;47.830;19.026;2022-08-25T00:59:50;14.00;;;7.13;;
52984;SDS011;40499;47.830;19.026;2022-08-25T01:02:16;15.25;;;6.68;;
52984;SDS011;40499;47.830;19.026;2022-08-25T01:04:42;19.48;;;6.38;;
52984;SDS011;40499;47.830;19.026;2022-08-25T01:07:10;13.98;;;5.78;;
52984;SDS011;40499;47.830;19.026;2022-08-25T01:09:36;12.85;;;6.20;;
52984;SDS011;40499;47.830;19.026;2022-08-25T01:12:02;14.23;;;6.55;;
52984;SDS011;40499;47.830;19.026;2022-08-25T01:14:28;11.07;;;5.72;;
52984;SDS011;40499;47.830;19.026;2022-08-25T01:16:56;11.48;;;6.35;;
52984;SDS011;40499;47.830;19.026;2022-08-25T01:19:23;12.52;;;6.20;;
52984;SDS011;40499;47.830;19.026;2022-08-25T01:21:51;23.05;;;7.47;;
52984;SDS011;40499;47.830;19.026;2022-08-25T01:24:33;10.23;;;5.47;;
52984;SDS011;40499;47.830;19.026;2022-08-25T01:27:05;14.27;;;7.25;;
52984;SDS011;40499;47.830;19.026;2022-08-25T01:29:32;13.15;;;6.85;;
52984;SDS011;40499;47.830;19.026;2022-08-25T01:32:02;18.00;;;7.25;;
52984;SDS011;40499;47.830;19.026;2022-08-25T01:34:30;16.50;;;6.78;;
52984;SDS011;40499;47.830;19.026;2022-08-25T01:36:58;14.35;;;7.00;;
52984;SDS011;40499;47.830;19.026;2022-08-25T01:39:26;17.40;;;7.78;;
52984;SDS011;40499;47.830;19.026;2022-08-25T01:41:54;14.48;;;6.85;;
52984;SDS011;40499;47.830;19.026;2022-08-25T01:44:38;17.00;;;6.87;;
52984;SDS011;40499;47.830;19.026;2022-08-25T01:47:08;21.98;;;6.47;;
52984;SDS011;40499;47.830;19.026;2022-08-25T01:49:35;17.40;;;7.38;;
52984;SDS011;40499;47.830;19.026;2022-08-25T01:52:04;13.30;;;6.45;;
52984;SDS011;40499;47.830;19.026;2022-08-25T01:54:34;13.85;;;5.65;;
52984;SDS011;40499;47.830;19.026;2022-08-25T01:56:59;16.75;;;7.38;;
52984;SDS011;40499;47.830;19.026;2022-08-25T01:59:25;14.52;;;6.70;;
52984;SDS011;40499;47.830;19.026;2022-08-25T02:01:51;15.32;;;6.15;;
52984;SDS011;40499;47.830;19.026;2022-08-25T02:04:17;13.98;;;6.55;;
52984;SDS011;40499;47.830;19.026;2022-08-25T02:06:43;18.35;;;7.07;;
52984;SDS011;40499;47.830;19.026;2022-08-25T02:09:12;14.50;;;6.72;;
52984;SDS011;40499;47.830;19.026;2022-08-25T02:11:40;14.52;;;7.40;;
52984;SDS011;40499;47.830;19.026;2022-08-25T02:14:08;19.90;;;7.15;;
52984;SDS011;40499;47.830;19.026;2022-08-25T02:16:36;11.77;;;7.43;;
52984;SDS011;40499;47.830;19.026;2022-08-25T02:19:04;13.75;;;6.68;;
52984;SDS011;40499;47.830;19.026;2022-08-25T02:21:31;13.52;;;5.80;;
52984;SDS011;40499;47.830;19.026;2022-08-25T02:23:57;13.95;;;6.68;;
52984;SDS011;40499;47.830;19.026;2022-08-25T02:26:22;11.23;;;6.20;;
52984;SDS011;40499;47.830;19.026;2022-08-25T02:28:49;19.95;;;6.35;;
52984;SDS011;40499;47.830;19.026;2022-08-25T02:31:17;18.38;;;6.10;;
52984;SDS011;40499;47.830;19.026;2022-08-25T02:33:44;18.98;;;7.55;;
52984;SDS011;40499;47.830;19.026;2022-08-25T02:36:10;9.68;;;5.35;;
52984;SDS011;40499;47.830;19.026;2022-08-25T02:38:36;10.32;;;5.70;;
52984;SDS011;40499;47.830;19.026;2022-08-25T02:41:07;11.27;;;4.85;;
52984;SDS011;40499;47.830;19.026;2022-08-25T02:43:37;14.57;;;6.13;;
52984;SDS011;40499;47.830;19.026;2022-08-25T02:46:04;10.73;;;5.95;;
52984;SDS011;40499;47.830;19.026;2022-08-25T02:48:30;13.25;;;5.72;;
52984;SDS011;40499;47.830;19.026;2022-08-25T02:50:57;13.93;;;6.65;;
52984;SDS011;40499;47.830;19.026;2022-08-25T02:53:25;12.48;;;6.00;;
52984;SDS011;40499;47.830;19.026;2022-08-25T02:55:51;13.10;;;5.65;;
52984;SDS011;40499;47.830;19.026;2022-08-25T02:58:17;13.10;;;6.32;;
52984;SDS011;40499;47.830;19.026;2022-08-25T03:00:42;13.38;;;6.70;;
52984;SDS011;40499;47.830;19.026;2022-08-25T03:03:07;17.48;;;7.22;;
52984;SDS011;40499;47.830;19.026;2022-08-25T03:05:33;10.30;;;6.80;;
52984;SDS011;40499;47.830;19.026;2022-08-25T03:07:58;17.83;;;7.00;;
52984;SDS011;40499;47.830;19.026;2022-08-25T03:10:24;11.90;;;6.28;;
52984;SDS011;40499;47.830;19.026;2022-08-25T03:12:50;14.98;;;6.38;;
52984;SDS011;40499;47.830;19.026;2022-08-25T03:15:16;12.75;;;6.88;;
52984;SDS011;40499;47.830;19.026;2022-08-25T03:17:42;11.70;;;6.35;;
52984;SDS011;40499;47.830;19.026;2022-08-25T03:20:09;15.45;;;7.00;;
52984;SDS011;40499;47.830;19.026;2022-08-25T03:22:34;14.27;;;6.68;;
52984;SDS011;40499;47.830;19.026;2022-08-25T03:25:00;10.43;;;6.00;;
52984;SDS011;40499;47.830;19.026;2022-08-25T03:27:45;11.32;;;5.80;;
52984;SDS011;40499;47.830;19.026;2022-08-25T03:30:13;16.48;;;5.97;;
52984;SDS011;40499;47.830;19.026;2022-08-25T03:32:40;17.20;;;6.13;;
52984;SDS011;40499;47.830;19.026;2022-08-25T03:35:06;10.27;;;5.75;;
52984;SDS011;40499;47.830;19.026;2022-08-25T03:37:32;11.77;;;6.32;;
52984;SDS011;40499;47.830;19.026;2022-08-25T03:39:57;11.65;;;5.65;;
52984;SDS011;40499;47.830;19.026;2022-08-25T03:42:22;11.95;;;5.47;;
52984;SDS011;40499;47.830;19.026;2022-08-25T03:44:48;15.57;;;5.18;;
52984;SDS011;40499;47.830;19.026;2022-08-25T03:47:14;12.45;;;5.30;;
52984;SDS011;40499;47.830;19.026;2022-08-25T03:49:39;11.55;;;5.53;;
52984;SDS011;40499;47.830;19.026;2022-08-25T03:52:05;13.02;;;5.30;;
52984;SDS011;40499;47.830;19.026;2022-08-25T03:54:30;13.25;;;6.10;;
52984;SDS011;40499;47.830;19.026;2022-08-25T03:56:55;10.40;;;6.05;;
52984;SDS011;40499;47.830;19.026;2022-08-25T03:59:21;17.65;;;6.72;;
52984;SDS011;40499;47.830;19.026;2022-08-25T04:01:46;15.25;;;6.93;;
52984;SDS011;40499;47.830;19.026;2022-08-25T04:04:13;9.45;;;6.07;;
52984;SDS011;40499;47.830;19.026;2022-08-25T04:06:39;13.95;;;6.18;;
52984;SDS011;40499;47.830;19.026;2022-08-25T04:09:07;13.55;;;5.82;;
52984;SDS011;40499;47.830;19.026;2022-08-25T04:11:33;13.65;;;6.00;;
52984;SDS011;40499;47.830;19.026;2022-08-25T04:14:00;11.68;;;5.90;;
52984;SDS011;40499;47.830;19.026;2022-08-25T04:16:27;11.35;;;6.00;;
52984;SDS011;40499;47.830;19.026;2022-08-25T04:18:55;10.40;;;6.00;;
52984;SDS011;40499;47.830;19.026;2022-08-25T04:21:23;15.55;;;7.28;;
52984;SDS011;40499;47.830;19.026;2022-08-25T04:23:50;15.93;;;7.15;;
52984;SDS011;40499;47.830;19.026;2022-08-25T04:28:43;16.40;;;6.65;;
52984;SDS011;40499;47.830;19.026;2022-08-25T04:31:10;8.60;;;6.00;;
52984;SDS011;40499;47.830;19.026;2022-08-25T04:33:38;9.82;;;6.28;;
52984;SDS011;40499;47.830;19.026;2022-08-25T04:36:04;14.93;;;6.97;;
52984;SDS011;40499;47.830;19.026;2022-08-25T04:38:31;12.18;;;6.90;;
52984;SDS011;40499;47.830;19.026;2022-08-25T04:40:57;18.52;;;7.82;;
52984;SDS011;40499;47.830;19.026;2022-08-25T04:43:24;12.55;;;7.25;;
52984;SDS011;40499;47.830;19.026;2022-08-25T04:45:49;14.90;;;8.85;;
52984;SDS011;40499;47.830;19.026;2022-08-25T04:48:16;21.42;;;11.05;;
52984;SDS011;40499;47.830;19.026;2022-08-25T04:50:42;25.13;;;12.45;;
52984;SDS011;40499;47.830;19.026;2022-08-25T04:53:08;22.58;;;12.13;;
52984;SDS011;40499;47.830;19.026;2022-08-25T04:55:38;22.00;;;12.00;;
52984;SDS011;40499;47.830;19.026;2022-08-25T04:58:05;26.42;;;13.30;;
52984;SDS011;40499;47.830;19.026;2022-08-25T05:00:31;24.27;;;12.98;;
52984;SDS011;40499;47.830;19.026;2022-08-25T05:02:59;26.27;;;12.93;;
52984;SDS011;40499;47.830;19.026;2022-08-25T05:05:24;24.80;;;15.32;;
52984;SDS011;40499;47.830;19.026;2022-08-25T05:07:50;30.77;;;14.18;;
52984;SDS011;40499;47.830;19.026;2022-08-25T05:10:15;24.52;;;14.63;;
52984;SDS011;40499;47.830;19.026;2022-08-25T05:12:41;29.48;;;14.57;;
52984;SDS011;40499;47.830;19.026;2022-08-25T05:15:06;22.15;;;12.15;;
52984;SDS011;40499;47.830;19.026;2022-08-25T05:18:07;18.83;;;10.52;;
52984;SDS011;40499;47.830;19.026;2022-08-25T05:20:35;13.30;;;8.77;;
52984;SDS011;40499;47.830;19.026;2022-08-25T05:23:01;22.42;;;10.25;;
52984;SDS011;40499;47.830;19.026;2022-08-25T05:25:27;15.82;;;9.90;;
52984;SDS011;40499;47.830;19.026;2022-08-25T05:27:53;14.48;;;10.00;;
52984;SDS011;40499;47.830;19.026;2022-08-25T05:30:18;15.48;;;8.93;;
52984;SDS011;40499;47.830;19.026;2022-08-25T05:32:43;15.93;;;8.18;;
52984;SDS011;40499;47.830;19.026;2022-08-25T05:35:09;19.58;;;8.82;;
52984;SDS011;40499;47.830;19.026;2022-08-25T05:37:34;18.77;;;8.13;;
52984;SDS011;40499;47.830;19.026;2022-08-25T05:40:01;20.00;;;8.93;;
52984;SDS011;40499;47.830;19.026;2022-08-25T05:42:27;17.75;;;7.93;;
52984;SDS011;40499;47.830;19.026;2022-08-25T05:44:53;16.58;;;7.32;;
52984;SDS011;40499;47.830;19.026;2022-08-25T05:47:19;16.77;;;7.63;;
52984;SDS011;40499;47.830;19.026;2022-08-25T05:49:45;20.88;;;7.32;;
52984;SDS011;40499;47.830;19.026;2022-08-25T05:52:10;15.90;;;7.00;;
52984;SDS011;40499;47.830;19.026;2022-08-25T05:54:36;20.85;;;6.38;;
52984;SDS011;40499;47.830;19.026;2022-08-25T05:57:04;19.67;;;6.97;;
52984;SDS011;40499;47.830;19.026;2022-08-25T05:59:30;13.05;;;6.47;;
52984;SDS011;40499;47.830;19.026;2022-08-25T06:01:56;12.35;;;6.18;;
52984;SDS011;40499;47.830;19.026;2022-08-25T06:04:40;15.52;;;6.22;;
52984;SDS011;40499;47.830;19.026;2022-08-25T06:07:05;13.40;;;5.90;;
52984;SDS011;40499;47.830;19.026;2022-08-25T06:09:31;13.30;;;5.80;;
52984;SDS011;40499;47.830;19.026;2022-08-25T06:11:56;29.08;;;7.57;;
52984;SDS011;40499;47.830;19.026;2022-08-25T06:14:22;16.17;;;5.63;;
52984;SDS011;40499;47.830;19.026;2022-08-25T06:16:48;13.80;;;5.90;;
52984;SDS011;40499;47.830;19.026;2022-08-25T06:19:15;12.27;;;5.65;;
52984;SDS011;40499;47.830;19.026;2022-08-25T06:21:41;21.25;;;6.10;;
52984;SDS011;40499;47.830;19.026;2022-08-25T06:24:07;16.73;;;6.72;;
52984;SDS011;40499;47.830;19.026;2022-08-25T06:26:34;13.80;;;5.40;;
52984;SDS011;40499;47.830;19.026;2022-08-25T06:29:00;19.45;;;5.82;;
52984;SDS011;40499;47.830;19.026;2022-08-25T06:31:26;16.27;;;5.13;;
52984;SDS011;40499;47.830;19.026;2022-08-25T06:33:51;14.90;;;5.15;;
52984;SDS011;40499;47.830;19.026;2022-08-25T06:36:17;15.88;;;5.25;;
52984;SDS011;40499;47.830;19.026;2022-08-25T06:38:43;13.63;;;4.72;;
52984;SDS011;40499;47.830;19.026;2022-08-25T06:41:09;13.93;;;5.07;;
52984;SDS011;40499;47.830;19.026;2022-08-25T06:43:36;15.70;;;4.82;;
52984;SDS011;40499;47.830;19.026;2022-08-25T06:46:22;16.95;;;6.30;;
52984;SDS011;40499;47.830;19.026;2022-08-25T06:48:51;15.43;;;4.80;;
52984;SDS011;40499;47.830;19.026;2022-08-25T06:51:17;16.77;;;5.07;;
52984;SDS011;40499;47.830;19.026;2022-08-25T06:53:44;14.02;;;4.65;;
52984;SDS011;40499;47.830;19.026;2022-08-25T06:56:11;14.98;;;5.78;;
52984;SDS011;40499;47.830;19.026;2022-08-25T06:58:37;15.68;;;4.55;;
52984;SDS011;40499;47.830;19.026;2022-08-25T07:01:11;12.60;;;4.80;;
52984;SDS011;40499;47.830;19.026;2022-08-25T07:03:37;16.55;;;5.50;;
52984;SDS011;40499;47.830;19.026;2022-08-25T07:06:02;12.85;;;5.45;;
52984;SDS011;40499;47.830;19.026;2022-08-25T07:08:29;12.55;;;4.75;;
52984;SDS011;40499;47.830;19.026;2022-08-25T07:10:54;14.55;;;4.80;;
52984;SDS011;40499;47.830;19.026;2022-08-25T07:13:20;13.60;;;5.38;;
52984;SDS011;40499;47.830;19.026;2022-08-25T07:15:46;21.75;;;5.60;;
52984;SDS011;40499;47.830;19.026;2022-08-25T07:18:11;14.07;;;4.82;;
52984;SDS011;40499;47.830;19.026;2022-08-25T07:20:37;14.00;;;5.70;;
52984;SDS011;40499;47.830;19.026;2022-08-25T07:23:04;16.00;;;4.97;;
52984;SDS011;40499;47.830;19.026;2022-08-25T07:25:31;18.55;;;5.63;;
52984;SDS011;40499;47.830;19.026;2022-08-25T07:28:15;18.58;;;5.95;;
52984;SDS011;40499;47.830;19.026;2022-08-25T07:30:41;16.17;;;5.03;;
52984;SDS011;40499;47.830;19.026;2022-08-25T07:33:10;27.70;;;5.72;;
52984;SDS011;40499;47.830;19.026;2022-08-25T07:35:36;13.93;;;5.13;;
52984;SDS011;40499;47.830;19.026;2022-08-25T07:38:02;22.13;;;6.05;;
52984;SDS011;40499;47.830;19.026;2022-08-25T07:40:33;13.40;;;4.82;;
52984;SDS011;40499;47.830;19.026;2022-08-25T07:43:02;15.35;;;5.00;;
52984;SDS011;40499;47.830;19.026;2022-08-25T07:45:30;15.10;;;4.80;;
52984;SDS011;40499;47.830;19.026;2022-08-25T07:48:08;22.38;;;5.40;;
52984;SDS011;40499;47.830;19.026;2022-08-25T07:50:36;16.10;;;4.80;;
52984;SDS011;40499;47.830;19.026;2022-08-25T07:53:06;17.70;;;5.05;;
52984;SDS011;40499;47.830;19.026;2022-08-25T07:55:33;20.40;;;5.13;;
52984;SDS011;40499;47.830;19.026;2022-08-25T07:58:00;18.48;;;5.20;;
52984;SDS011;40499;47.830;19.026;2022-08-25T08:00:27;23.95;;;6.18;;
52984;SDS011;40499;47.830;19.026;2022-08-25T08:02:54;13.20;;;4.60;;
52984;SDS011;40499;47.830;19.026;2022-08-25T08:05:20;22.42;;;5.22;;
52984;SDS011;40499;47.830;19.026;2022-08-25T08:07:46;16.13;;;5.00;;
52984;SDS011;40499;47.830;19.026;2022-08-25T08:10:12;17.98;;;5.95;;
52984;SDS011;40499;47.830;19.026;2022-08-25T08:12:38;15.80;;;4.90;;
52984;SDS011;40499;47.830;19.026;2022-08-25T08:15:04;21.23;;;5.88;;
52984;SDS011;40499;47.830;19.026;2022-08-25T08:17:30;15.35;;;6.00;;
52984;SDS011;40499;47.830;19.026;2022-08-25T08:19:56;15.88;;;4.18;;
52984;SDS011;40499;47.830;19.026;2022-08-25T08:22:22;16.63;;;4.85;;
52984;SDS011;40499;47.830;19.026;2022-08-25T08:24:47;16.65;;;4.78;;
52984;SDS011;40499;47.830;19.026;2022-08-25T08:27:13;16.92;;;5.15;;
52984;SDS011;40499;47.830;19.026;2022-08-25T08:29:39;9.60;;;3.90;;
52984;SDS011;40499;47.830;19.026;2022-08-25T08:32:06;16.95;;;4.30;;
52984;SDS011;40499;47.830;19.026;2022-08-25T08:34:33;10.70;;;4.53;;
52984;SDS011;40499;47.830;19.026;2022-08-25T08:36:59;15.60;;;5.35;;
52984;SDS011;40499;47.830;19.026;2022-08-25T08:39:26;15.40;;;4.30;;
52984;SDS011;40499;47.830;19.026;2022-08-25T08:44:52;11.68;;;2.85;;
52984;SDS011;40499;47.830;19.026;2022-08-25T08:47:40;12.20;;;3.45;;
52984;SDS011;40499;47.830;19.026;2022-08-25T08:53:12;15.25;;;3.58;;
52984;SDS011;40499;47.830;19.026;2022-08-25T08:55:50;15.32;;;3.63;;
52984;SDS011;40499;47.830;19.026;2022-08-25T09:00:49;10.95;;;3.47;;
52984;SDS011;40499;47.830;19.026;2022-08-25T09:03:34;11.48;;;3.92;;
52984;SDS011;40499;47.830;19.026;2022-08-25T09:08:37;10.50;;;2.80;;
52984;SDS011;40499;47.830;19.026;2022-08-25T09:11:11;10.80;;;3.22;;
52984;SDS011;40499;47.830;19.026;2022-08-25T09:16:54;15.13;;;2.95;;
52984;SDS011;40499;47.830;19.026;2022-08-25T09:32:18;14.48;;;2.50;;
52984;SDS011;40499;47.830;19.026;2022-08-25T09:34:44;9.57;;;2.60;;
52984;SDS011;40499;47.830;19.026;2022-08-25T09:37:11;8.35;;;3.00;;
52984;SDS011;40499;47.830;19.026;2022-08-25T09:39:37;10.65;;;3.28;;
52984;SDS011;40499;47.830;19.026;2022-08-25T09:42:03;11.82;;;3.33;;
52984;SDS011;40499;47.830;19.026;2022-08-25T09:54:53;8.60;;;2.60;;
52984;SDS011;40499;47.830;19.026;2022-08-25T09:57:37;7.53;;;2.33;;
52984;SDS011;40499;47.830;19.026;2022-08-25T10:05:16;4.97;;;2.20;;
52984;SDS011;40499;47.830;19.026;2022-08-25T10:07:49;12.80;;;2.13;;
52984;SDS011;40499;47.830;19.026;2022-08-25T10:10:23;9.13;;;2.17;;
52984;SDS011;40499;47.830;19.026;2022-08-25T10:12:53;12.43;;;2.50;;
52984;SDS011;40499;47.830;19.026;2022-08-25T10:15:20;10.57;;;2.80;;
52984;SDS011;40499;47.830;19.026;2022-08-25T10:18:20;9.00;;;2.33;;
52984;SDS011;40499;47.830;19.026;2022-08-25T10:21:09;8.45;;;2.13;;
52984;SDS011;40499;47.830;19.026;2022-08-25T10:23:41;7.63;;;2.15;;
52984;SDS011;40499;47.830;19.026;2022-08-25T10:26:33;7.30;;;1.85;;
52984;SDS011;40499;47.830;19.026;2022-08-25T10:36:52;10.07;;;2.13;;
52984;SDS011;40499;47.830;19.026;2022-08-25T10:39:41;9.48;;;2.40;;
52984;SDS011;40499;47.830;19.026;2022-08-25T10:45:23;10.80;;;3.13;;
52984;SDS011;40499;47.830;19.026;2022-08-25T10:48:17;7.90;;;2.10;;
52984;SDS011;40499;47.830;19.026;2022-08-25T10:51:05;9.27;;;2.40;;
52984;SDS011;40499;47.830;19.026;2022-08-25T10:56:17;27.15;;;4.60;;
52984;SDS011;40499;47.830;19.026;2022-08-25T10:58:53;13.30;;;3.17;;
52984;SDS011;40499;47.830;19.026;2022-08-25T11:06:41;9.32;;;2.47;;
52984;SDS011;40499;47.830;19.026;2022-08-25T11:09:13;9.13;;;2.38;;
52984;SDS011;40499;47.830;19.026;2022-08-25T11:14:45;15.27;;;2.83;;
52984;SDS011;40499;47.830;19.026;2022-08-25T11:17:13;6.90;;;2.03;;
52984;SDS011;40499;47.830;19.026;2022-08-25T11:19:46;10.80;;;2.10;;
52984;SDS011;40499;47.830;19.026;2022-08-25T11:22:19;4.80;;;1.48;;
52984;SDS011;40499;47.830;19.026;2022-08-25T11:30:34;5.90;;;1.70;;
52984;SDS011;40499;47.830;19.026;2022-08-25T11:33:00;5.82;;;2.53;;
52984;SDS011;40499;47.830;19.026;2022-08-25T11:35:27;6.88;;;2.33;;
52984;SDS011;40499;47.830;19.026;2022-08-25T11:38:19;10.25;;;2.60;;
52984;SDS011;40499;47.830;19.026;2022-08-25T11:55:19;10.60;;;2.40;;
52984;SDS011;40499;47.830;19.026;2022-08-25T11:57:52;6.15;;;2.05;;
52984;SDS011;40499;47.830;19.026;2022-08-25T12:00:52;8.73;;;2.20;;
52984;SDS011;40499;47.830;19.026;2022-08-25T12:27:00;9.60;;;2.08;;
52984;SDS011;40499;47.830;19.026;2022-08-25T12:34:29;7.90;;;2.28;;
52984;SDS011;40499;47.830;19.026;2022-08-25T12:37:13;8.63;;;2.08;;
52984;SDS011;40499;47.830;19.026;2022-08-25T12:45:13;7.18;;;2.22;;
52984;SDS011;40499;47.830;19.026;2022-08-25T12:48:39;10.70;;;2.55;;
52984;SDS011;40499;47.830;19.026;2022-08-25T12:50:55;7.40;;;1.90;;
52984;SDS011;40499;47.830;19.026;2022-08-25T12:56:20;9.55;;;1.95;;
52984;SDS011;40499;47.830;19.026;2022-08-25T13:15:04;8.60;;;1.88;;
52984;SDS011;40499;47.830;19.026;2022-08-25T13:17:31;7.90;;;2.42;;
52984;SDS011;40499;47.830;19.026;2022-08-25T13:20:11;7.30;;;1.88;;
52984;SDS011;40499;47.830;19.026;2022-08-25T13:22:43;7.93;;;2.17;;
52984;SDS011;40499;47.830;19.026;2022-08-25T13:25:15;9.60;;;2.60;;
52984;SDS011;40499;47.830;19.026;2022-08-25T13:27:46;12.35;;;2.30;;
52984;SDS011;40499;47.830;19.026;2022-08-25T13:30:29;8.85;;;2.15;;
52984;SDS011;40499;47.830;19.026;2022-08-25T13:32:56;8.02;;;2.05;;
52984;SDS011;40499;47.830;19.026;2022-08-25T13:35:24;10.88;;;2.70;;
52984;SDS011;40499;47.830;19.026;2022-08-25T13:40:41;9.02;;;2.20;;
52984;SDS011;40499;47.830;19.026;2022-08-25T13:43:10;8.70;;;2.10;;
52984;SDS011;40499;47.830;19.026;2022-08-25T13:45:39;8.85;;;2.40;;
52984;SDS011;40499;47.830;19.026;2022-08-25T13:48:10;9.63;;;2.03;;
52984;SDS011;40499;47.830;19.026;2022-08-25T13:50:38;9.70;;;2.40;;
52984;SDS011;40499;47.830;19.026;2022-08-25T13:53:10;8.43;;;2.30;;
52984;SDS011;40499;47.830;19.026;2022-08-25T13:58:22;11.30;;;2.10;;
52984;SDS011;40499;47.830;19.026;2022-08-25T14:03:38;8.60;;;2.35;;
52984;SDS011;40499;47.830;19.026;2022-08-25T14:06:09;9.30;;;2.17;;
52984;SDS011;40499;47.830;19.026;2022-08-25T14:09:03;7.93;;;1.90;;
52984;SDS011;40499;47.830;19.026;2022-08-25T14:11:41;7.38;;;2.10;;
52984;SDS011;40499;47.830;19.026;2022-08-25T14:16:52;7.75;;;2.30;;
52984;SDS011;40499;47.830;19.026;2022-08-25T14:19:30;9.93;;;1.75;;
52984;SDS011;40499;47.830;19.026;2022-08-25T14:21:56;16.65;;;2.90;;
52984;SDS011;40499;47.830;19.026;2022-08-25T14:24:26;11.07;;;2.22;;
52984;SDS011;40499;47.830;19.026;2022-08-25T14:26:57;10.82;;;2.13;;
52984;SDS011;40499;47.830;19.026;2022-08-25T14:29:23;5.93;;;2.38;;
52984;SDS011;40499;47.830;19.026;2022-08-25T14:31:48;7.05;;;2.20;;
52984;SDS011;40499;47.830;19.026;2022-08-25T14:34:23;9.73;;;2.28;;
52984;SDS011;40499;47.830;19.026;2022-08-25T14:36:52;7.30;;;2.58;;
52984;SDS011;40499;47.830;19.026;2022-08-25T14:39:18;8.13;;;2.42;;
52984;SDS011;40499;47.830;19.026;2022-08-25T14:41:44;9.57;;;2.15;;
52984;SDS011;40499;47.830;19.026;2022-08-25T14:44:14;9.32;;;2.30;;
52984;SDS011;40499;47.830;19.026;2022-08-25T14:46:43;6.65;;;2.50;;
52984;SDS011;40499;47.830;19.026;2022-08-25T14:49:15;9.82;;;2.67;;
52984;SDS011;40499;47.830;19.026;2022-08-25T14:51:43;11.40;;;2.58;;
52984;SDS011;40499;47.830;19.026;2022-08-25T14:54:09;12.23;;;2.60;;
52984;SDS011;40499;47.830;19.026;2022-08-25T14:56:38;11.32;;;2.40;;
52984;SDS011;40499;47.830;19.026;2022-08-25T14:59:04;5.95;;;2.42;;
52984;SDS011;40499;47.830;19.026;2022-08-25T15:01:30;11.40;;;3.35;;
52984;SDS011;40499;47.830;19.026;2022-08-25T15:06:32;10.35;;;2.67;;
52984;SDS011;40499;47.830;19.026;2022-08-25T15:09:00;9.38;;;2.42;;
52984;SDS011;40499;47.830;19.026;2022-08-25T15:11:32;7.68;;;2.95;;
52984;SDS011;40499;47.830;19.026;2022-08-25T15:13:58;7.88;;;2.83;;
52984;SDS011;40499;47.830;19.026;2022-08-25T15:16:44;14.07;;;3.75;;
52984;SDS011;40499;47.830;19.026;2022-08-25T15:19:13;9.30;;;2.88;;
52984;SDS011;40499;47.830;19.026;2022-08-25T15:21:40;16.73;;;2.90;;
52984;SDS011;40499;47.830;19.026;2022-08-25T15:24:07;12.75;;;3.28;;
52984;SDS011;40499;47.830;19.026;2022-08-25T15:26:36;8.57;;;2.47;;
52984;SDS011;40499;47.830;19.026;2022-08-25T15:29:06;6.47;;;2.67;;
52984;SDS011;40499;47.830;19.026;2022-08-25T15:31:31;9.57;;;3.25;;
52984;SDS011;40499;47.830;19.026;2022-08-25T15:33:57;11.45;;;3.33;;
52984;SDS011;40499;47.830;19.026;2022-08-25T15:36:23;9.20;;;2.17;;
52984;SDS011;40499;47.830;19.026;2022-08-25T15:38:50;11.98;;;2.78;;
52984;SDS011;40499;47.830;19.026;2022-08-25T15:41:16;6.93;;;2.10;;
52984;SDS011;40499;47.830;19.026;2022-08-25T15:43:43;11.23;;;2.75;;
52984;SDS011;40499;47.830;19.026;2022-08-25T15:46:09;11.68;;;2.55;;
52984;SDS011;40499;47.830;19.026;2022-08-25T15:48:39;11.27;;;2.60;;
52984;SDS011;40499;47.830;19.026;2022-08-25T15:51:06;14.88;;;3.00;;
52984;SDS011;40499;47.830;19.026;2022-08-25T15:53:32;11.65;;;2.55;;
52984;SDS011;40499;47.830;19.026;2022-08-25T15:55:58;8.90;;;2.33;;
52984;SDS011;40499;47.830;19.026;2022-08-25T15:58:25;11.55;;;2.70;;
52984;SDS011;40499;47.830;19.026;2022-08-25T16:00:51;8.68;;;2.65;;
52984;SDS011;40499;47.830;19.026;2022-08-25T16:03:16;9.48;;;2.60;;
52984;SDS011;40499;47.830;19.026;2022-08-25T16:05:42;9.52;;;2.33;;
52984;SDS011;40499;47.830;19.026;2022-08-25T16:08:09;9.27;;;2.75;;
52984;SDS011;40499;47.830;19.026;2022-08-25T16:10:36;6.95;;;2.45;;
52984;SDS011;40499;47.830;19.026;2022-08-25T16:13:03;11.27;;;2.67;;
52984;SDS011;40499;47.830;19.026;2022-08-25T16:15:29;14.57;;;2.63;;
52984;SDS011;40499;47.830;19.026;2022-08-25T16:17:57;12.77;;;2.60;;
52984;SDS011;40499;47.830;19.026;2022-08-25T16:20:24;8.52;;;2.60;;
52984;SDS011;40499;47.830;19.026;2022-08-25T16:22:50;14.38;;;3.00;;
52984;SDS011;40499;47.830;19.026;2022-08-25T16:25:16;12.48;;;3.50;;
52984;SDS011;40499;47.830;19.026;2022-08-25T16:27:41;7.45;;;2.60;;
52984;SDS011;40499;47.830;19.026;2022-08-25T16:30:07;14.82;;;3.40;;
52984;SDS011;40499;47.830;19.026;2022-08-25T16:32:34;9.25;;;3.80;;
52984;SDS011;40499;47.830;19.026;2022-08-25T16:34:59;9.25;;;2.50;;
52984;SDS011;40499;47.830;19.026;2022-08-25T16:37:25;6.95;;;3.00;;
52984;SDS011;40499;47.830;19.026;2022-08-25T16:39:54;19.42;;;4.13;;
52984;SDS011;40499;47.830;19.026;2022-08-25T16:42:20;14.48;;;3.17;;
52984;SDS011;40499;47.830;19.026;2022-08-25T16:44:46;12.77;;;2.78;;
52984;SDS011;40499;47.830;19.026;2022-08-25T16:47:11;14.00;;;3.20;;
52984;SDS011;40499;47.830;19.026;2022-08-25T16:49:38;11.13;;;2.85;;
52984;SDS011;40499;47.830;19.026;2022-08-25T16:52:04;15.32;;;3.55;;
52984;SDS011;40499;47.830;19.026;2022-08-25T16:54:50;14.52;;;3.47;;
52984;SDS011;40499;47.830;19.026;2022-08-25T16:57:34;11.77;;;3.30;;
52984;SDS011;40499;47.830;19.026;2022-08-25T16:59:59;11.95;;;3.28;;
52984;SDS011;40499;47.830;19.026;2022-08-25T17:02:25;9.00;;;2.95;;
52984;SDS011;40499;47.830;19.026;2022-08-25T17:04:50;8.90;;;3.55;;
52984;SDS011;40499;47.830;19.026;2022-08-25T17:07:16;12.93;;;3.30;;
52984;SDS011;40499;47.830;19.026;2022-08-25T17:09:41;15.23;;;3.30;;